Time;durP1;ratioP1;P1;durP2;ratioP2;P2;SDS_P1;SDS_P2;PMS_P1;PMS_P2;Temp;Humidity;BMP_temperature;BMP_pressure;BME280_temperature;BME280_humidity;BME280_pressure;Samples;Min_cycle;Max_cycle;Signal;HPM_P1;HPM_P2
2021/08/20 00:00:30;;;;;;;6.30;5.70;;;18.20;99.90;;;;;;5075123;28;20439;-86
2021/08/20 00:02:57;;;;;;;6.33;5.67;;;18.10;99.90;;;;;;5075664;28;20485;-85
2021/08/20 00:05:25;;;;;;;5.70;4.70;;;18.10;99.90;;;;;;5075084;28;20467;-86
2021/08/20 00:07:56;;;;;;;7.03;5.60;;;18.40;99.90;;;;;;5075219;28;20480;-85
2021/08/20 00:10:27;;;;;;;5.97;5.37;;;18.10;99.90;;;;;;5075345;28;20980;-86
2021/08/20 00:12:55;;;;;;;5.27;4.77;;;18.10;99.90;;;;;;5076499;28;20834;-85
2021/08/20 00:15:22;;;;;;;5.83;5.20;;;18.00;99.90;;;;;;5076739;28;20461;-86
2021/08/20 00:17:49;;;;;;;5.03;4.60;;;17.90;99.90;;;;;;5076030;28;21039;-84
2021/08/20 00:20:16;;;;;;;4.90;4.40;;;18.20;99.90;;;;;;5075057;28;20456;-85
2021/08/20 00:22:44;;;;;;;4.60;4.07;;;18.20;99.90;;;;;;5075455;28;20512;-85
2021/08/20 00:25:14;;;;;;;4.93;3.80;;;18.30;99.90;;;;;;5077194;28;20453;-85
2021/08/20 00:27:44;;;;;;;4.10;3.80;;;18.50;99.90;;;;;;5076041;28;20483;-86
2021/08/20 00:30:13;;;;;;;4.50;4.10;;;18.20;99.90;;;;;;5075704;28;20453;-85
2021/08/20 00:32:40;;;;;;;4.43;4.00;;;18.20;99.90;;;;;;5075464;28;20529;-85
2021/08/20 00:35:11;;;;;;;4.60;4.20;;;18.30;99.90;;;;;;5076002;28;20851;-85
2021/08/20 00:37:40;;;;;;;5.40;4.87;;;18.10;99.90;;;;;;5076100;28;20454;-85
2021/08/20 00:40:17;;;;;;;6.77;4.57;;;18.10;99.90;;;;;;5094971;28;20503;-84
2021/08/20 00:42:44;;;;;;;4.17;3.80;;;18.10;99.90;;;;;;5097883;28;20457;-84
2021/08/20 00:45:14;;;;;;;5.13;4.47;;;18.10;99.90;;;;;;5098142;28;20502;-84
2021/08/20 00:47:41;;;;;;;4.00;3.60;;;18.10;99.90;;;;;;5101295;28;20463;-84
2021/08/20 00:50:09;;;;;;;4.73;4.33;;;18.20;99.90;;;;;;5101268;28;20447;-85
2021/08/20 00:52:38;;;;;;;4.20;3.80;;;18.10;99.90;;;;;;5100774;28;20476;-85
2021/08/20 00:55:08;;;;;;;5.00;4.47;;;18.10;99.90;;;;;;5095551;28;20441;-86
2021/08/20 00:57:37;;;;;;;4.50;4.07;;;17.80;99.90;;;;;;5095928;28;20433;-85
2021/08/20 01:00:04;;;;;;;5.37;4.20;;;18.10;99.90;;;;;;5094421;28;20456;-85
2021/08/20 01:02:31;;;;;;;5.30;4.17;;;18.00;99.90;;;;;;5092545;28;20465;-85
2021/08/20 01:04:58;;;;;;;4.67;4.27;;;18.00;99.90;;;;;;5089824;28;20978;-85
2021/08/20 01:07:25;;;;;;;3.53;3.23;;;18.00;99.90;;;;;;5093523;28;20453;-84
2021/08/20 01:09:52;;;;;;;3.80;3.30;;;18.00;99.90;;;;;;5090432;28;20473;-85
2021/08/20 01:12:19;;;;;;;4.47;4.07;;;17.90;99.90;;;;;;5094046;28;20441;-86
2021/08/20 01:14:52;;;;;;;4.67;4.27;;;18.00;99.90;;;;;;5086154;28;20464;-85
2021/08/20 01:17:23;;;;;;;4.47;4.07;;;18.00;99.90;;;;;;5080693;28;20441;-85
2021/08/20 01:19:52;;;;;;;10.23;4.33;;;18.00;99.90;;;;;;5078908;28;20484;-86
2021/08/20 01:22:21;;;;;;;4.20;3.80;;;17.90;99.90;;;;;;5078229;28;20493;-86
2021/08/20 01:24:49;;;;;;;4.37;3.97;;;17.90;99.90;;;;;;5078589;28;20506;-85
2021/08/20 01:27:19;;;;;;;5.90;4.17;;;17.80;99.90;;;;;;5078281;28;20962;-86
2021/08/20 01:29:49;;;;;;;5.57;4.03;;;17.70;99.90;;;;;;5079475;28;20523;-85
2021/08/20 01:32:18;;;;;;;3.80;3.40;;;17.60;99.90;;;;;;5078560;28;20445;-85
2021/08/20 01:34:44;;;;;;;3.73;3.43;;;17.60;99.90;;;;;;5078478;28;20540;-84
2021/08/20 01:37:11;;;;;;;4.10;3.70;;;17.50;99.90;;;;;;5083435;28;20469;-84
2021/08/20 01:39:38;;;;;;;3.67;3.23;;;17.50;99.90;;;;;;5082615;28;20608;-84
2021/08/20 01:42:09;;;;;;;6.03;3.83;;;17.40;99.90;;;;;;5078468;28;20473;-84
2021/08/20 01:44:38;;;;;;;4.50;3.93;;;17.40;99.90;;;;;;5081936;28;20466;-84
2021/08/20 01:47:07;;;;;;;4.37;3.20;;;17.40;99.90;;;;;;5081611;28;20801;-85
2021/08/20 01:49:34;;;;;;;3.60;3.30;;;17.50;99.90;;;;;;5081750;28;20834;-85
2021/08/20 01:52:02;;;;;;;4.27;3.87;;;17.50;99.90;;;;;;5079524;28;20453;-85
2021/08/20 01:54:30;;;;;;;3.67;2.97;;;17.50;99.90;;;;;;5078106;28;20791;-85
2021/08/20 01:56:57;;;;;;;3.90;3.60;;;17.50;99.90;;;;;;5078032;28;20865;-86
2021/08/20 01:59:24;;;;;;;4.70;4.30;;;17.50;99.90;;;;;;5078225;28;20473;-86
2021/08/20 02:01:54;;;;;;;3.63;3.30;;;17.50;99.90;;;;;;5078276;28;20458;-86
2021/08/20 02:04:21;;;;;;;4.53;3.70;;;17.30;99.90;;;;;;5077982;28;20832;-86
2021/08/20 02:06:48;;;;;;;3.33;3.03;;;17.50;99.90;;;;;;5078402;28;20792;-86
2021/08/20 02:09:16;;;;;;;2.90;2.50;;;17.40;99.90;;;;;;5084137;28;20480;-85
2021/08/20 02:11:44;;;;;;;3.50;3.17;;;17.40;99.90;;;;;;5081430;28;20437;-85
2021/08/20 02:14:12;;;;;;;3.40;3.10;;;17.30;99.90;;;;;;5077357;28;20481;-85
2021/08/20 02:16:38;;;;;;;3.10;2.80;;;17.40;99.90;;;;;;5081329;28;20453;-86
2021/08/20 02:19:08;;;;;;;4.60;3.40;;;17.40;99.90;;;;;;5097602;28;20481;-85
2021/08/20 02:21:36;;;;;;;3.27;3.07;;;17.00;99.90;;;;;;5094370;28;20441;-85
2021/08/20 02:24:06;;;;;;;3.93;3.60;;;17.30;99.90;;;;;;5088819;28;20483;-85
2021/08/20 02:26:35;;;;;;;3.40;3.10;;;17.40;99.90;;;;;;5091307;28;20997;-85
2021/08/20 02:29:03;;;;;;;3.73;3.43;;;17.40;99.90;;;;;;5084000;28;20480;-85
2021/08/20 02:31:32;;;;;;;3.20;2.90;;;17.40;99.90;;;;;;5077980;28;20454;-85
2021/08/20 02:34:00;;;;;;;3.57;3.27;;;17.20;99.90;;;;;;5076995;28;20457;-86
2021/08/20 02:36:30;;;;;;;3.90;3.60;;;17.40;99.90;;;;;;5090117;28;20456;-86
2021/08/20 02:39:00;;;;;;;3.20;2.87;;;17.40;99.90;;;;;;5080727;28;21003;-85
2021/08/20 02:41:31;;;;;;;3.70;3.30;;;17.40;99.90;;;;;;5077244;28;20456;-85
2021/08/20 02:43:58;;;;;;;3.87;3.47;;;17.40;99.90;;;;;;5077350;28;20481;-86
2021/08/20 02:46:25;;;;;;;4.50;4.10;;;17.50;99.90;;;;;;5076516;28;20460;-86
2021/08/20 02:48:57;;;;;;;3.30;3.00;;;17.50;99.90;;;;;;5077008;28;20552;-86
2021/08/20 02:51:26;;;;;;;3.70;3.40;;;17.50;99.90;;;;;;5084375;28;20449;-85
2021/08/20 02:53:55;;;;;;;4.47;3.30;;;17.50;99.90;;;;;;5092210;28;20448;-84
2021/08/20 02:56:23;;;;;;;4.17;3.37;;;17.60;99.90;;;;;;5083767;28;20480;-84
2021/08/20 02:58:53;;;;;;;3.93;3.57;;;17.50;99.90;;;;;;5079007;28;20473;-85
2021/08/20 03:01:20;;;;;;;4.27;3.77;;;17.60;99.90;;;;;;5078590;28;20477;-84
2021/08/20 03:03:48;;;;;;;3.93;3.60;;;17.50;99.90;;;;;;5077173;28;21066;-85
2021/08/20 03:06:16;;;;;;;4.83;4.33;;;17.50;99.90;;;;;;5077302;28;20459;-85
2021/08/20 03:08:44;;;;;;;4.40;3.87;;;17.60;99.90;;;;;;5076623;28;20477;-85
2021/08/20 03:11:14;;;;;;;5.43;3.40;;;17.50;99.90;;;;;;5077870;28;20815;-86
2021/08/20 03:13:41;;;;;;;4.27;3.90;;;17.50;99.90;;;;;;5083153;28;20470;-85
2021/08/20 03:16:09;;;;;;;4.20;3.60;;;17.40;99.90;;;;;;5084247;28;20453;-84
2021/08/20 03:18:37;;;;;;;5.00;4.40;;;17.50;99.90;;;;;;5079445;28;20839;-84
2021/08/20 03:21:04;;;;;;;4.00;3.70;;;17.50;99.90;;;;;;5078589;28;20457;-85
2021/08/20 03:23:31;;;;;;;4.37;3.97;;;17.40;99.90;;;;;;5077388;28;20855;-85
2021/08/20 03:25:58;;;;;;;4.23;3.83;;;17.50;99.90;;;;;;5078042;28;20481;-84
2021/08/20 03:28:29;;;;;;;6.03;4.73;;;17.40;99.90;;;;;;5076868;28;20568;-85
2021/08/20 03:30:58;;;;;;;4.13;3.77;;;17.30;99.90;;;;;;5077569;28;20462;-85
2021/08/20 03:33:25;;;;;;;5.00;3.80;;;17.40;99.90;;;;;;5077650;28;20449;-85
2021/08/20 03:35:53;;;;;;;5.60;4.10;;;17.40;99.90;;;;;;5083269;28;20455;-85
2021/08/20 03:38:20;;;;;;;4.53;4.13;;;17.40;99.90;;;;;;5084623;28;20476;-85
2021/08/20 03:40:49;;;;;;;8.13;5.07;;;17.30;99.90;;;;;;5083959;28;20456;-85
2021/08/20 03:43:17;;;;;;;4.77;3.73;;;17.40;99.90;;;;;;5082534;28;20477;-84
2021/08/20 03:45:46;;;;;;;5.73;4.07;;;17.40;99.90;;;;;;5086580;28;20521;-84
2021/08/20 03:48:16;;;;;;;8.17;4.47;;;17.70;99.90;;;;;;5085945;28;20448;-84
2021/08/20 03:50:43;;;;;;;4.70;4.20;;;17.40;99.90;;;;;;5098356;28;20437;-84
2021/08/20 03:53:10;;;;;;;4.30;3.90;;;17.60;99.90;;;;;;5098657;28;20465;-84
2021/08/20 03:55:38;;;;;;;4.17;3.33;;;17.50;99.90;;;;;;5098443;28;20437;-84
2021/08/20 03:58:08;;;;;;;5.63;4.50;;;17.50;99.90;;;;;;5097750;28;20517;-84
2021/08/20 04:00:36;;;;;;;4.53;4.13;;;17.50;99.90;;;;;;5096609;28;20453;-86
2021/08/20 04:03:12;;;;;;;4.67;4.27;;;17.20;99.90;;;;;;5094749;28;20499;-85
2021/08/20 04:05:42;;;;;;;5.13;4.30;;;17.50;99.90;;;;;;5091295;28;20460;-86
2021/08/20 04:12:08;;;;;;;5.47;4.37;;;17.90;99.90;;;;;;4959807;28;20473;-85
2021/08/20 04:14:54;;;;;;;6.87;4.87;;;17.50;99.90;;;;;;4984399;28;20474;-84
2021/08/20 04:24:19;;;;;;;7.50;4.70;;;17.60;99.90;;;;;;4989832;22;20489;-82
2021/08/20 04:26:46;;;;;;;5.10;4.57;;;17.40;99.90;;;;;;5060571;28;20492;-82
2021/08/20 04:29:13;;;;;;;6.77;5.03;;;17.40;99.90;;;;;;5060083;28;20444;-82
2021/08/20 04:31:40;;;;;;;6.03;4.73;;;17.40;99.90;;;;;;5060335;28;20473;-83
2021/08/20 04:34:06;;;;;;;5.73;4.97;;;17.40;99.90;;;;;;5069074;28;20491;-82
2021/08/20 04:36:34;;;;;;;5.47;4.97;;;17.40;99.90;;;;;;5080709;28;20441;-82
2021/08/20 04:39:01;;;;;;;8.40;4.70;;;17.30;99.90;;;;;;5083138;28;20425;-81
2021/08/20 04:41:27;;;;;;;14.10;5.33;;;17.30;99.90;;;;;;5085445;28;20815;-83
2021/08/20 04:43:56;;;;;;;9.37;7.17;;;17.40;99.90;;;;;;5080243;28;20554;-81
2021/08/20 04:46:23;;;;;;;7.80;6.27;;;17.30;99.90;;;;;;5080197;28;20491;-83
2021/08/20 04:48:50;;;;;;;7.10;6.37;;;17.10;99.90;;;;;;5084019;28;20445;-82
2021/08/20 04:51:16;;;;;;;6.93;6.23;;;17.10;99.90;;;;;;5080399;28;20498;-84
2021/08/20 04:53:44;;;;;;;9.53;7.00;;;17.10;99.90;;;;;;5080389;28;20514;-83
2021/08/20 04:56:11;;;;;;;12.20;8.00;;;17.00;99.90;;;;;;5080856;28;20471;-82
2021/08/20 04:58:37;;;;;;;7.73;6.30;;;17.00;99.90;;;;;;5081164;28;20445;-83
2021/08/20 05:01:05;;;;;;;10.80;7.30;;;16.70;99.90;;;;;;5079843;28;20445;-83
2021/08/20 05:03:32;;;;;;;9.40;6.50;;;16.90;99.90;;;;;;5077239;28;20560;-82
2021/08/20 05:05:59;;;;;;;17.03;7.13;;;16.90;99.90;;;;;;5077619;28;20802;-82
2021/08/20 05:08:25;;;;;;;11.13;6.60;;;16.80;99.90;;;;;;5077803;28;20480;-83
2021/08/20 05:10:53;;;;;;;13.73;8.63;;;16.90;99.90;;;;;;5077630;28;20442;-82
2021/08/20 05:13:37;;;;;;;9.10;7.47;;;16.90;99.90;;;;;;5146888;22;20465;-81
2021/08/20 05:16:04;;;;;;;10.03;7.50;;;18.10;99.90;;;;;;5036820;28;20456;-82
2021/08/20 05:18:31;;;;;;;11.57;7.60;;;;;;;;;;5038830;28;20897;-82
2021/08/20 05:20:57;;;;;;;11.50;7.37;;;17.00;99.90;;;;;;5042571;28;20450;-82
2021/08/20 05:23:24;;;;;;;9.70;7.57;;;17.00;99.90;;;;;;5049276;28;20547;-81
2021/08/20 05:31:44;;;;;;;12.23;7.77;;;16.90;99.90;;;;;;4284963;26;20908;-83
2021/08/20 05:37:20;;;;;;;10.97;7.67;;;;;;;;;;5019110;28;20456;-82
2021/08/20 05:39:48;;;;;;;18.77;10.10;;;;;;;;;;5023727;28;20510;-84
2021/08/20 05:42:15;;;;;;;41.80;29.70;;;;;;;;;;5057033;28;20442;-84
2021/08/20 05:44:42;;;;;;;19.23;14.70;;;;;;;;;;5072548;28;20497;-81
2021/08/20 05:47:10;;;;;;;17.00;9.37;;;17.10;99.90;;;;;;5071697;28;20466;-81
2021/08/20 05:49:36;;;;;;;16.40;9.90;;;17.20;99.90;;;;;;5069868;28;20476;-81
2021/08/20 05:52:03;;;;;;;12.90;8.80;;;17.20;99.90;;;;;;5063556;28;20504;-81
2021/08/20 05:54:30;;;;;;;15.30;9.90;;;17.10;99.90;;;;;;5061554;28;20443;-81
2021/08/20 05:56:57;;;;;;;9.80;8.50;;;17.20;99.90;;;;;;5060709;28;20482;-82
2021/08/20 05:59:24;;;;;;;11.90;9.13;;;17.20;99.90;;;;;;5060728;28;20457;-81
2021/08/20 06:01:50;;;;;;;25.07;9.80;;;17.20;99.90;;;;;;5061073;28;20468;-82
2021/08/20 06:04:18;;;;;;;11.97;9.30;;;17.20;99.90;;;;;;5061068;28;20886;-81
2021/08/20 06:06:45;;;;;;;13.23;10.37;;;17.30;99.90;;;;;;5059995;28;20466;-81
2021/08/20 06:09:12;;;;;;;17.30;9.90;;;17.20;99.90;;;;;;5059831;28;20500;-82
2021/08/20 06:11:38;;;;;;;16.50;10.20;;;17.30;99.90;;;;;;5066022;28;20548;-82
2021/08/20 06:14:05;;;;;;;17.37;11.37;;;17.30;99.90;;;;;;5065186;28;20804;-82
2021/08/20 06:16:32;;;;;;;21.33;11.80;;;17.40;99.90;;;;;;5058806;28;20473;-81
2021/08/20 06:18:59;;;;;;;20.30;16.40;;;;;;;;;;5060121;28;20457;-82
2021/08/20 06:21:26;;;;;;;17.17;12.93;;;17.50;99.90;;;;;;5060032;28;20478;-82
2021/08/20 06:23:53;;;;;;;18.43;13.83;;;17.50;99.90;;;;;;5060987;28;20505;-82
2021/08/20 06:26:20;;;;;;;17.93;13.40;;;17.50;99.90;;;;;;5061029;28;20891;-81
2021/08/20 06:28:46;;;;;;;18.40;12.40;;;17.40;99.90;;;;;;5060623;28;20487;-81
2021/08/20 06:31:13;;;;;;;24.03;13.53;;;17.70;99.90;;;;;;5059268;28;20508;-82
2021/08/20 06:33:39;;;;;;;18.87;13.07;;;17.80;99.90;;;;;;5068774;28;20450;-81
2021/08/20 06:36:06;;;;;;;18.60;13.37;;;18.00;99.90;;;;;;5068895;28;20442;-82
2021/08/20 06:38:34;;;;;;;17.90;13.87;;;18.00;99.90;;;;;;5069738;28;20465;-82
2021/08/20 06:41:01;;;;;;;21.23;14.30;;;18.00;99.90;;;;;;5069764;28;20457;-81
2021/08/20 06:43:28;;;;;;;19.00;14.80;;;18.10;99.90;;;;;;5068971;28;20535;-82
2021/08/20 06:45:54;;;;;;;17.73;14.50;;;18.20;99.90;;;;;;5067073;28;20442;-82
2021/08/20 06:48:21;;;;;;;23.60;18.43;;;18.20;99.90;;;;;;5062277;28;20450;-83
2021/08/20 06:50:47;;;;;;;18.50;15.10;;;18.20;99.90;;;;;;5069404;28;20438;-81
2021/08/20 06:53:14;;;;;;;24.03;18.30;;;18.30;99.90;;;;;;5078858;28;20438;-82
2021/08/20 06:55:42;;;;;;;23.63;16.10;;;18.30;99.90;;;;;;5079104;28;20452;-81
2021/08/20 06:58:08;;;;;;;18.97;15.80;;;18.30;99.90;;;;;;5078822;28;20462;-81
2021/08/20 07:00:35;;;;;;;23.50;18.60;;;18.20;99.90;;;;;;5074172;28;20438;-81
2021/08/20 07:03:02;;;;;;;22.90;17.47;;;18.20;99.90;;;;;;5072317;28;20418;-81
2021/08/20 07:05:29;;;;;;;23.13;16.23;;;18.20;99.90;;;;;;5062431;28;20515;-82
2021/08/20 07:07:55;;;;;;;23.07;16.27;;;18.30;99.90;;;;;;5062246;28;20980;-82
2021/08/20 07:10:22;;;;;;;23.70;18.37;;;18.30;99.90;;;;;;5061072;28;20446;-81
2021/08/20 07:12:50;;;;;;;21.93;16.50;;;18.30;99.90;;;;;;5058626;28;20434;-82
2021/08/20 07:15:16;;;;;;;22.10;16.53;;;18.30;99.90;;;;;;5057348;28;20504;-81
2021/08/20 07:17:43;;;;;;;25.43;17.33;;;18.30;99.90;;;;;;5057698;28;20994;-82
2021/08/20 07:20:11;;;;;;;24.20;16.70;;;18.40;99.90;;;;;;5057966;28;20462;-80
2021/08/20 07:22:37;;;;;;;15.30;13.17;;;18.30;99.90;;;;;;5062961;28;20457;-80
2021/08/20 07:25:05;;;;;;;16.83;14.30;;;18.40;99.90;;;;;;5066219;28;20490;-80
2021/08/20 07:27:31;;;;;;;17.50;15.50;;;18.40;99.90;;;;;;5058932;28;21047;-80
2021/08/20 07:29:59;;;;;;;19.57;15.00;;;18.40;99.90;;;;;;5057201;28;20457;-81
2021/08/20 07:32:26;;;;;;;18.37;15.10;;;18.70;99.90;;;;;;5056642;28;20802;-81
2021/08/20 07:34:52;;;;;;;17.50;13.70;;;18.60;99.90;;;;;;5060084;28;20447;-80
2021/08/20 07:37:19;;;;;;;15.17;13.27;;;18.70;99.90;;;;;;5059654;28;20467;-80
2021/08/20 07:39:46;;;;;;;16.07;13.40;;;18.70;99.90;;;;;;5057415;28;20446;-80
2021/08/20 07:42:13;;;;;;;17.47;13.27;;;18.70;99.90;;;;;;5061577;28;20468;-80
2021/08/20 07:44:39;;;;;;;17.87;13.80;;;18.70;99.90;;;;;;5061642;28;20584;-81
2021/08/20 07:47:08;;;;;;;15.87;13.30;;;18.70;99.90;;;;;;5061893;28;20470;-81
2021/08/20 07:49:34;;;;;;;17.57;13.10;;;18.60;99.90;;;;;;5061967;28;20446;-80
2021/08/20 07:52:03;;;;;;;16.60;13.37;;;18.50;99.90;;;;;;5062627;28;20464;-81
2021/08/20 07:54:31;;;;;;;16.20;13.70;;;18.50;99.90;;;;;;5061000;28;20940;-80
2021/08/20 07:56:58;;;;;;;15.53;13.50;;;18.50;99.90;;;;;;5064421;28;20998;-80
2021/08/20 07:59:25;;;;;;;17.57;14.03;;;18.20;99.90;;;;;;5064327;28;20438;-81
2021/08/20 08:01:51;;;;;;;18.60;13.40;;;18.50;99.90;;;;;;5063899;28;20524;-80
2021/08/20 08:04:19;;;;;;;14.87;12.60;;;18.40;99.90;;;;;;5064149;28;20528;-81
2021/08/20 08:06:46;;;;;;;13.17;11.27;;;18.50;99.90;;;;;;5065553;28;20462;-79
2021/08/20 08:09:12;;;;;;;12.43;9.00;;;18.20;99.90;;;;;;5068998;28;20453;-81
2021/08/20 08:11:39;;;;;;;9.13;8.13;;;17.90;99.90;;;;;;5066040;28;20488;-79
2021/08/20 08:14:06;;;;;;;10.97;9.40;;;17.60;99.90;;;;;;5063974;28;21002;-81
2021/08/20 08:16:34;;;;;;;10.60;8.43;;;17.60;99.90;;;;;;5065567;28;20538;-80
2021/08/20 08:19:00;;;;;;;10.80;8.33;;;17.40;99.90;;;;;;5078383;28;20469;-80
2021/08/20 08:21:28;;;;;;;12.67;9.00;;;17.40;99.90;;;;;;5079393;28;20461;-80
2021/08/20 08:23:57;;;;;;;9.00;7.90;;;17.40;99.90;;;;;;5077963;28;20486;-80
2021/08/20 08:26:24;;;;;;;11.63;7.40;;;17.40;99.90;;;;;;5069932;28;21042;-79
2021/08/20 08:28:51;;;;;;;9.17;6.50;;;17.50;99.90;;;;;;5074502;28;20817;-80
2021/08/20 08:31:17;;;;;;;11.07;8.70;;;17.50;99.90;;;;;;5060906;28;21011;-80
2021/08/20 08:33:44;;;;;;;9.00;7.63;;;17.50;99.90;;;;;;5060704;28;20446;-80
2021/08/20 08:36:11;;;;;;;12.20;8.50;;;17.40;99.90;;;;;;5060476;28;21019;-80
2021/08/20 08:38:39;;;;;;;14.00;9.20;;;17.50;99.90;;;;;;5062546;28;20442;-82
2021/08/20 08:41:06;;;;;;;12.60;9.40;;;17.40;99.90;;;;;;5061183;28;20461;-81
2021/08/20 08:43:32;;;;;;;11.10;9.37;;;17.30;99.90;;;;;;5060514;28;20442;-80
2021/08/20 08:46:03;;;;;;;11.93;10.37;;;17.30;99.90;;;;;;5060606;28;20486;-80
2021/08/20 08:48:31;;;;;;;12.00;10.40;;;17.00;99.90;;;;;;5063020;28;20434;-81
2021/08/20 08:50:59;;;;;;;15.73;10.70;;;17.00;99.90;;;;;;5064961;28;20452;-81
2021/08/20 08:53:26;;;;;;;16.23;12.40;;;17.00;99.90;;;;;;5062409;28;20442;-80
2021/08/20 08:55:54;;;;;;;14.87;12.60;;;17.00;99.90;;;;;;5062220;28;20810;-79
2021/08/20 08:58:20;;;;;;;15.37;12.10;;;17.00;99.90;;;;;;5061467;28;20445;-80
2021/08/20 09:00:47;;;;;;;15.47;11.70;;;17.10;99.90;;;;;;5061108;28;20450;-80
2021/08/20 09:03:23;;;;;;;14.10;12.60;;;17.10;99.90;;;;;;5062929;28;20456;-80
2021/08/20 09:05:49;;;;;;;15.37;12.30;;;17.30;99.90;;;;;;5062514;28;20469;-80
2021/08/20 09:08:18;;;;;;;14.73;12.60;;;17.20;99.90;;;;;;5061112;28;20450;-80
2021/08/20 09:10:49;;;;;;;14.63;13.13;;;17.20;99.90;;;;;;5061208;28;20446;-81
2021/08/20 09:13:18;;;;;;;16.40;13.50;;;17.30;99.90;;;;;;5059957;28;20464;-81
2021/08/20 09:15:46;;;;;;;16.50;13.73;;;17.30;99.90;;;;;;5059851;28;20438;-81
2021/08/20 09:18:21;;;;;;;17.77;14.13;;;17.20;99.90;;;;;;5059948;28;20842;-81
2021/08/20 09:20:48;;;;;;;17.47;12.10;;;17.30;99.90;;;;;;5059413;28;20517;-81
2021/08/20 09:23:21;;;;;;;18.53;12.93;;;17.40;99.90;;;;;;5059356;28;20473;-81
2021/08/20 09:25:48;;;;;;;21.93;13.33;;;17.50;99.90;;;;;;5059192;28;20531;-81
2021/08/20 09:28:22;;;;;;;17.47;12.90;;;17.60;99.90;;;;;;5059606;28;21026;-81
2021/08/20 09:31:01;;;;;;;18.63;12.50;;;17.60;99.90;;;;;;5059241;28;20485;-81
2021/08/20 09:33:30;;;;;;;18.17;13.63;;;17.60;99.90;;;;;;5060069;28;20446;-81
2021/08/20 09:35:59;;;;;;;16.90;13.73;;;17.80;99.90;;;;;;5059894;28;20442;-81
2021/08/20 09:38:27;;;;;;;15.40;12.73;;;17.60;99.90;;;;;;5066309;28;20454;-80
2021/08/20 09:40:57;;;;;;;18.60;12.50;;;17.70;99.90;;;;;;5068448;28;20461;-80
2021/08/20 09:43:29;;;;;;;12.70;11.40;;;17.70;99.90;;;;;;5064819;28;20430;-81
2021/08/20 09:45:59;;;;;;;14.13;9.57;;;18.00;99.90;;;;;;5062361;28;20476;-80
2021/08/20 09:48:50;;;;;;;13.00;10.10;;;17.80;99.90;;;;;;5063719;28;20438;-81
2021/08/20 09:51:39;;;;;;;14.17;10.13;;;17.90;99.90;;;;;;5060955;28;20473;-81
2021/08/20 09:54:08;;;;;;;12.07;10.87;;;18.00;99.90;;;;;;5061240;28;20431;-81
2021/08/20 09:56:36;;;;;;;12.40;9.80;;;18.10;99.90;;;;;;5061417;28;20500;-82
2021/08/20 09:59:06;;;;;;;13.73;10.40;;;18.20;99.90;;;;;;5060695;28;20465;-80
2021/08/20 10:01:34;;;;;;;12.77;9.80;;;18.30;99.90;;;;;;5061992;28;20431;-81
2021/08/20 10:04:03;;;;;;;13.47;10.30;;;18.20;99.90;;;;;;5061261;28;20453;-79
2021/08/20 10:06:33;;;;;;;11.80;9.03;;;18.30;99.90;;;;;;5060163;28;20466;-80
2021/08/20 10:09:03;;;;;;;9.70;8.70;;;18.40;99.90;;;;;;5059667;28;20768;-79
2021/08/20 10:11:30;;;;;;;10.70;9.13;;;18.40;99.90;;;;;;5058578;28;20802;-79
2021/08/20 10:14:00;;;;;;;9.80;8.00;;;18.50;99.90;;;;;;5058473;28;20446;-80
2021/08/20 10:16:31;;;;;;;12.93;8.43;;;18.60;99.90;;;;;;5058319;28;20458;-80
2021/08/20 10:18:59;;;;;;;9.83;8.30;;;18.70;99.90;;;;;;5057097;28;20508;-80
2021/08/20 10:21:27;;;;;;;9.10;8.10;;;18.70;99.90;;;;;;5061632;28;20450;-80
2021/08/20 10:23:53;;;;;;;8.93;8.07;;;18.80;99.90;;;;;;5060792;28;20446;-80
2021/08/20 10:26:21;;;;;;;8.80;7.13;;;18.90;99.90;;;;;;5059679;28;21042;-80
2021/08/20 10:28:50;;;;;;;11.20;8.70;;;18.90;99.90;;;;;;5058216;28;20984;-80
2021/08/20 10:31:17;;;;;;;8.57;7.60;;;18.90;99.90;;;;;;5057510;28;20482;-79
2021/08/20 10:33:45;;;;;;;8.93;7.67;;;19.00;99.90;;;;;;5057622;28;20454;-80
2021/08/20 10:36:11;;;;;;;7.80;7.10;;;19.00;99.90;;;;;;5058234;28;20466;-80
2021/08/20 10:38:42;;;;;;;7.30;6.60;;;19.10;99.90;;;;;;5057170;28;20438;-80
2021/08/20 10:41:12;;;;;;;9.27;7.30;;;18.90;99.90;;;;;;5058580;28;20478;-82
2021/08/20 10:44:01;;;;;;;7.27;6.60;;;18.90;99.90;;;;;;5057797;28;20457;-80
2021/08/20 10:47:10;;;;;;;6.80;6.10;;;18.80;99.90;;;;;;5057345;28;20497;-80
2021/08/20 10:49:40;;;;;;;10.50;7.27;;;18.90;99.90;;;;;;5057411;28;20430;-80
2021/08/20 10:52:07;;;;;;;9.53;7.27;;;18.90;99.90;;;;;;5058016;28;20496;-80
2021/08/20 10:55:09;;;;;;;7.10;5.80;;;18.70;99.90;;;;;;5057244;28;20478;-80
2021/08/20 10:57:59;;;;;;;6.00;5.40;;;19.10;99.90;;;;;;5057586;28;20493;-80
2021/08/20 11:00:28;;;;;;;8.00;7.13;;;19.20;99.90;;;;;;5058287;28;20445;-80
2021/08/20 11:02:56;;;;;;;7.03;5.93;;;19.40;99.90;;;;;;5061994;28;20510;-80
2021/08/20 11:05:47;;;;;;;7.63;6.80;;;19.40;99.90;;;;;;5058158;28;21043;-80
2021/08/20 11:08:39;;;;;;;6.43;5.83;;;19.60;99.90;;;;;;5066000;28;20465;-80
2021/08/20 11:11:06;;;;;;;7.53;6.83;;;19.70;99.90;;;;;;5072278;28;20438;-80
2021/08/20 11:13:33;;;;;;;7.07;6.37;;;19.70;99.90;;;;;;5071756;28;20442;-80
2021/08/20 11:16:02;;;;;;;10.50;7.00;;;19.60;99.90;;;;;;5070781;28;20435;-80
2021/08/20 11:18:46;;;;;;;6.27;5.03;;;19.70;99.90;;;;;;5059152;28;20461;-80
2021/08/20 11:21:44;;;;;;;6.10;5.50;;;19.80;99.90;;;;;;5058660;28;20484;-80
2021/08/20 11:24:16;;;;;;;5.93;5.37;;;19.90;99.90;;;;;;5059871;28;20486;-80
2021/08/20 11:26:44;;;;;;;6.13;5.63;;;19.90;99.90;;;;;;5058551;28;20537;-80
2021/08/20 11:33:39;;;;;;;8.63;7.77;;;20.00;99.90;;;;;;4919273;29;20580;-82
2021/08/20 11:36:44;;;;;;;;;;;;;;;;;;;;;
2021/08/20 11:39:49;;;;;;;;;;;;;;;;;;;;;
2021/08/20 11:43:31;;;;;;;8.30;6.50;;;20.30;99.90;;;;;;5077900;28;20456;-82
2021/08/20 11:46:10;;;;;;;6.63;6.13;;;20.20;99.90;;;;;;5078251;28;20465;-82
2021/08/20 12:46:08;;;;;;;13.30;10.60;;;20.00;99.90;;;;;;4872443;29;20503;-82
2021/08/20 12:48:50;;;;;;;10.17;9.10;;;19.70;99.90;;;;;;5001818;22;20494;-83
2021/08/20 12:51:29;;;;;;;11.17;10.00;;;19.90;99.90;;;;;;5030673;28;20422;-83
2021/08/20 12:54:15;;;;;;;12.10;10.90;;;19.80;99.90;;;;;;5029496;28;20439;-81
2021/08/20 12:57:16;;;;;;;9.43;8.50;;;19.90;99.90;;;;;;5029705;28;20502;-83
2021/08/20 13:02:54;;;;;;;12.60;9.87;;;;;;;;;;5051100;28;20447;-84
2021/08/20 13:05:32;;;;;;;12.40;11.13;;;20.20;99.90;;;;;;5046904;28;20481;-84
2021/08/20 13:08:38;;;;;;;9.83;8.93;;;20.50;99.90;;;;;;5042593;28;20476;-84
2021/08/20 13:17:34;;;;;;;10.60;9.60;;;20.90;99.90;;;;;;4986271;28;20567;-83
2021/08/20 13:20:23;;;;;;;9.20;8.27;;;20.50;99.90;;;;;;5041526;28;20443;-84
2021/08/20 13:23:23;;;;;;;11.83;8.80;;;21.10;99.90;;;;;;5045840;28;20451;-84
2021/08/20 13:28:53;;;;;;;12.67;11.43;;;21.10;99.90;;;;;;5049146;28;20467;-82
2021/08/20 13:31:20;;;;;;;10.20;9.20;;;;;;;;;;5049900;28;20416;-84
2021/08/20 13:34:00;;;;;;;9.03;8.13;;;21.00;99.90;;;;;;5044175;28;20443;-84
2021/08/20 13:37:00;;;;;;;7.00;6.30;;;21.00;99.90;;;;;;5044343;28;20455;-84
2021/08/20 13:40:04;;;;;;;6.53;4.00;;;21.10;99.90;;;;;;5053588;28;20447;-84
2021/08/20 13:43:09;;;;;;;4.37;4.00;;;20.90;99.90;;;;;;5019766;28;20435;-83
2021/08/20 13:48:48;;;;;;;3.03;2.83;;;21.60;99.90;;;;;;5017741;28;20482;-84
2021/08/20 13:54:30;;;;;;;3.13;2.23;;;20.90;99.90;;;;;;5037368;28;20450;-84
2021/08/20 13:56:59;;;;;;;6.93;3.17;;;;;;;;;;5042185;28;20603;-84
2021/08/20 13:59:26;;;;;;;2.53;2.33;;;;;;;;;;5045447;28;20865;-84
2021/08/20 14:02:11;;;;;;;3.40;3.10;;;20.80;99.90;;;;;;5044121;28;20442;-83
2021/08/20 14:04:42;;;;;;;7.13;3.17;;;;;;;;;;5046202;28;20491;-84
2021/08/20 14:07:46;;;;;;;;;;;;;;;;;;;;;
2021/08/20 14:10:22;;;;;;;5.53;3.50;;;21.20;99.90;;;;;;5042335;28;20470;-85
2021/08/20 14:13:06;;;;;;;3.17;2.97;;;20.90;99.90;;;;;;5044497;28;20435;-84
2021/08/20 14:16:20;;;;;;;3.70;3.27;;;20.80;99.90;;;;;;5044385;28;20446;-84
2021/08/20 14:19:25;;;;;;;4.57;4.17;;;20.70;99.90;;;;;;5043094;28;20486;-85
2021/08/20 14:22:26;;;;;;;4.53;4.13;;;20.60;99.90;;;;;;5011805;28;20451;-84
2021/08/20 14:28:25;;;;;;;9.07;3.93;;;20.70;99.90;;;;;;5041923;28;20497;-83
2021/08/20 14:31:10;;;;;;;6.57;3.87;;;20.20;99.90;;;;;;5043685;28;20431;-84
2021/08/20 14:33:49;;;;;;;3.53;3.23;;;20.40;99.90;;;;;;5050297;28;20447;-83
2021/08/20 14:39:40;;;;;;;4.40;3.23;;;20.20;99.90;;;;;;5032383;28;20451;-84
2021/08/20 14:45:21;;;;;;;4.63;3.83;;;22.70;99.90;;;;;;5043887;28;20772;-84
2021/08/20 14:54:10;;;;;;;18.70;6.50;;;20.80;99.90;;;;;;4981925;28;20434;-84
2021/08/20 14:57:23;;;;;;;5.03;4.53;;;20.60;99.90;;;;;;5045902;28;20443;-83
2021/08/20 14:59:50;;;;;;;14.33;9.10;;;;;;;;;;5048082;28;20443;-83
2021/08/20 15:02:21;;;;;;;5.23;4.33;;;;;;;;;;5047481;28;20441;-84
2021/08/20 15:04:57;;;;;;;4.97;4.40;;;;;;;;;;5048563;28;20443;-83